Time;durP1;ratioP1;P1;durP2;ratioP2;P2;SDS_P1;SDS_P2;PMS_P1;PMS_P2;Temp;Humidity;BMP_temperature;BMP_pressure;BME280_temperature;BME280_humidity;BME280_pressure;Samples;Min_cycle;Max_cycle;Signal;HPM_P1;HPM_P2
2024/04/19 00:00:14;;;;;;;4.50;3.97;;;5.30;82.80;;;4.33;87.19;97975.81;5478528;26;21203;-80
2024/04/19 00:02:46;;;;;;;6.43;5.47;;;5.20;82.90;;;4.30;87.03;97978.00;5479844;26;20452;-77
2024/04/19 00:05:13;;;;;;;6.03;5.33;;;5.20;82.90;;;4.21;87.70;97982.56;5451998;26;20524;-77
2024/04/19 00:07:42;;;;;;;5.37;4.83;;;5.20;83.10;;;4.23;87.90;97976.06;5479309;26;20503;-75
2024/04/19 00:10:08;;;;;;;7.90;6.30;;;5.10;83.30;;;4.18;88.31;97973.09;5438961;26;21227;-76
2024/04/19 00:12:38;;;;;;;6.80;5.80;;;5.10;83.90;;;4.20;88.30;97970.22;5461937;26;20460;-78
2024/04/19 00:15:06;;;;;;;6.80;6.10;;;5.10;83.80;;;4.13;88.27;97953.22;5459160;26;20515;-77
2024/04/19 00:17:36;;;;;;;6.17;5.60;;;5.20;84.10;;;4.21;88.31;97974.56;5468974;26;20459;-81
2024/04/19 00:20:06;;;;;;;5.30;4.60;;;5.20;83.90;;;3.71;88.52;97888.41;5459151;26;20461;-80
2024/04/19 00:22:35;;;;;;;8.60;5.60;;;5.10;83.80;;;4.24;88.15;97969.69;5472453;26;20448;-80
2024/04/19 00:25:05;;;;;;;6.90;6.20;;;5.20;83.90;;;3.76;88.12;97894.91;5450368;26;20508;-76
2024/04/19 00:27:32;;;;;;;6.27;5.27;;;5.30;83.80;;;4.22;88.04;97969.03;5457253;26;20981;-79
2024/04/19 00:30:01;;;;;;;5.20;4.80;;;5.20;83.60;;;4.36;87.61;97975.47;5460026;26;21391;-81
2024/04/19 00:32:27;;;;;;;8.30;5.47;;;5.30;83.50;;;4.32;87.66;97967.97;5456411;26;21060;-78
2024/04/19 00:34:57;;;;;;;6.00;5.40;;;5.30;83.60;;;4.29;86.98;97957.63;5459837;26;20511;-77
2024/04/19 00:37:26;;;;;;;9.90;5.43;;;5.30;83.20;;;4.33;87.59;97967.81;5467575;26;20449;-79
2024/04/19 00:39:55;;;;;;;6.23;5.60;;;5.30;83.50;;;4.31;87.29;97969.81;5462848;26;20465;-80
2024/04/19 00:42:22;;;;;;;6.03;5.43;;;5.30;83.10;;;4.32;87.46;97973.31;5438501;26;20451;-79
2024/04/19 00:44:51;;;;;;;5.47;4.97;;;5.30;83.30;;;4.39;87.06;97969.75;5438794;26;20556;-78
2024/04/19 00:47:18;;;;;;;6.63;5.90;;;5.30;83.10;;;4.25;86.80;97957.97;5467243;26;20458;-77
2024/04/19 00:49:48;;;;;;;6.47;5.87;;;5.30;82.70;;;4.46;86.82;97969.06;5439928;26;20460;-79
2024/04/19 00:52:14;;;;;;;6.27;5.67;;;5.40;83.00;;;4.54;86.75;97961.81;5461678;26;20503;-78
2024/04/19 00:54:47;;;;;;;6.10;5.60;;;5.50;83.10;;;4.53;86.60;97965.50;5464311;26;20467;-80
2024/04/19 00:57:13;;;;;;;6.17;5.57;;;5.50;82.60;;;4.42;86.45;97957.88;5432540;26;20613;-76
2024/04/19 00:59:44;;;;;;;6.23;5.73;;;5.50;82.60;;;4.39;87.13;97951.03;5466904;26;20460;-81
2024/04/19 01:02:11;;;;;;;6.10;5.50;;;5.40;82.40;;;4.54;87.33;97952.94;5465693;26;20505;-77
2024/04/19 01:04:40;;;;;;;6.07;5.57;;;5.50;83.20;;;4.62;87.36;97952.06;5471046;26;20912;-81
2024/04/19 01:07:06;;;;;;;5.87;5.37;;;5.50;83.30;;;4.60;86.80;97943.38;5474794;26;20784;-81
2024/04/19 01:09:35;;;;;;;7.20;5.60;;;5.50;82.90;;;4.52;87.19;97947.78;5427235;26;20469;-82
2024/04/19 01:12:08;;;;;;;6.80;6.03;;;5.50;82.90;;;4.19;87.81;97937.31;5465107;26;20496;-80
2024/04/19 01:14:34;;;;;;;6.40;5.80;;;5.30;82.60;;;4.32;88.45;97941.22;5475650;26;20575;-81
2024/04/19 01:17:03;;;;;;;6.63;6.00;;;5.30;83.80;;;4.19;89.32;97942.66;5468184;26;20538;-79
2024/04/19 01:19:29;;;;;;;10.93;6.93;;;5.20;83.90;;;4.15;90.38;97938.66;5442559;26;20504;-80
2024/04/19 01:21:58;;;;;;;8.10;6.13;;;5.10;84.70;;;4.25;90.11;97930.44;5432793;26;21995;-81
2024/04/19 01:24:34;;;;;;;8.10;7.30;;;5.10;85.60;;;4.18;90.38;97941.00;5432703;26;20508;-83
2024/04/19 01:27:08;;;;;;;6.27;5.67;;;5.00;85.70;;;4.14;90.88;97939.66;5479235;26;20997;-83
2024/04/19 01:29:36;;;;;;;7.40;6.30;;;5.00;86.90;;;4.17;91.12;97930.47;5458761;26;20786;-78
2024/04/19 01:32:05;;;;;;;7.10;6.40;;;5.00;87.40;;;4.19;91.28;97937.31;5446010;26;20476;-83
2024/04/19 01:34:32;;;;;;;8.53;6.73;;;5.00;87.70;;;4.21;91.54;97935.28;5436788;26;20461;-80
2024/04/19 01:37:01;;;;;;;9.63;7.10;;;5.00;87.70;;;4.15;92.11;97935.16;5450989;26;20999;-81
2024/04/19 01:39:28;;;;;;;7.60;6.80;;;5.10;87.50;;;4.19;91.69;97929.28;5480409;26;20448;-82
2024/04/19 01:41:57;;;;;;;8.77;7.90;;;5.10;87.40;;;4.24;91.15;97929.56;5466507;26;20907;-77
2024/04/19 01:44:26;;;;;;;8.30;7.50;;;5.10;87.10;;;4.19;91.34;97931.97;5459743;26;20457;-76
2024/04/19 01:46:55;;;;;;;9.83;7.33;;;5.10;86.80;;;4.16;91.61;97932.28;5456329;26;20673;-83
2024/04/19 01:49:21;;;;;;;8.37;7.53;;;5.10;86.80;;;4.23;91.72;97933.25;5464288;26;20495;-83
2024/04/19 01:51:51;;;;;;;8.67;7.67;;;5.10;87.30;;;4.25;92.11;97925.88;5454006;26;20469;-74
2024/04/19 01:54:17;;;;;;;9.27;8.10;;;5.10;87.70;;;4.10;91.79;97928.50;5417293;26;20777;-82
2024/04/19 01:56:46;;;;;;;7.97;7.17;;;5.10;87.20;;;4.08;92.66;97913.63;5448235;26;20529;-83
2024/04/19 01:59:12;;;;;;;9.37;8.03;;;5.20;87.40;;;4.04;92.38;97917.69;5442928;26;20451;-79
2024/04/19 02:01:45;;;;;;;8.43;7.63;;;5.10;86.90;;;4.10;92.75;97928.50;5461480;26;20456;-82
2024/04/19 02:04:11;;;;;;;10.13;8.50;;;5.10;87.80;;;4.07;92.05;97925.34;5464429;26;20788;-80
2024/04/19 02:06:40;;;;;;;10.83;8.40;;;5.10;87.30;;;4.09;92.22;97923.31;5447106;26;20550;-78
2024/04/19 02:09:06;;;;;;;8.53;7.63;;;5.10;87.20;;;4.08;92.27;97922.47;5458536;26;20452;-80
2024/04/19 02:11:35;;;;;;;9.80;8.80;;;5.10;87.30;;;4.04;92.29;97923.03;5470275;26;20541;-80
2024/04/19 02:14:01;;;;;;;8.90;8.07;;;5.10;87.10;;;3.95;92.35;97920.38;5444362;26;20464;-79
2024/04/19 02:16:30;;;;;;;10.13;9.03;;;5.00;87.00;;;3.91;93.65;97915.56;5462885;26;20461;-81
2024/04/19 02:18:59;;;;;;;10.03;8.97;;;5.00;88.00;;;3.95;94.06;97903.53;5459243;26;20445;-82
2024/04/19 02:21:28;;;;;;;11.70;9.60;;;5.00;89.10;;;3.95;93.93;97912.38;5448962;26;20569;-80
2024/04/19 02:23:54;;;;;;;11.10;9.93;;;5.00;89.10;;;3.97;93.51;97906.84;5466205;26;20453;-82
2024/04/19 02:26:24;;;;;;;11.33;9.50;;;5.00;88.30;;;4.03;93.64;97900.78;5460775;26;20477;-80
2024/04/19 02:31:37;;;;;;;11.00;9.90;;;5.00;88.30;;;4.01;93.40;97901.97;5467355;26;20591;-77
2024/04/19 02:34:09;;;;;;;12.50;9.93;;;5.00;88.20;;;3.97;93.50;97878.25;5437723;26;21282;-81
2024/04/19 02:36:38;;;;;;;12.83;10.70;;;5.00;88.20;;;4.10;93.16;97880.38;5451423;26;20538;-79
2024/04/19 02:39:07;;;;;;;11.90;10.17;;;5.10;88.00;;;4.11;93.36;97882.03;5475337;26;20496;-76
2024/04/19 02:41:36;;;;;;;12.10;10.83;;;5.10;88.40;;;4.09;93.09;97884.06;5466741;26;20494;-78
2024/04/19 02:44:05;;;;;;;12.00;10.00;;;5.10;87.70;;;4.13;92.89;97873.00;5448081;26;20537;-80
2024/04/19 02:46:34;;;;;;;11.67;10.47;;;5.10;88.10;;;4.13;92.43;97867.66;5441249;26;20446;-80
2024/04/19 02:49:03;;;;;;;11.80;10.60;;;5.20;87.60;;;4.06;93.04;97873.69;5416028;26;20564;-78
2024/04/19 02:51:35;;;;;;;13.10;11.20;;;5.10;88.10;;;4.22;93.11;97871.91;5438243;26;20925;-80
2024/04/19 02:54:04;;;;;;;12.30;10.33;;;5.20;88.50;;;4.04;92.70;97858.84;5459821;26;20542;-76
2024/04/19 02:56:32;;;;;;;12.33;10.50;;;5.10;88.00;;;4.15;92.50;97855.75;5470533;26;20451;-81
2024/04/19 02:59:01;;;;;;;12.33;11.07;;;5.20;87.50;;;4.10;92.53;97847.44;5441776;26;20528;-79
2024/04/19 03:01:30;;;;;;;12.10;10.80;;;5.20;87.00;;;4.05;92.95;97855.16;5427279;26;20921;-72
2024/04/19 03:03:59;;;;;;;13.03;10.67;;;5.10;87.50;;;4.01;93.36;97849.34;5465158;26;21086;-78
2024/04/19 03:06:28;;;;;;;13.13;11.33;;;5.10;87.80;;;3.95;93.57;97834.84;5449786;26;20514;-79
2024/04/19 03:09:04;;;;;;;12.10;10.90;;;5.10;88.10;;;4.08;92.58;97844.13;5468763;26;20840;-78
2024/04/19 03:11:33;;;;;;;11.87;10.50;;;5.10;87.40;;;4.03;92.98;97835.81;5463639;26;20508;-78
2024/04/19 03:14:02;;;;;;;13.83;12.10;;;5.10;87.50;;;4.13;92.16;97836.38;5456242;26;20456;-77
2024/04/19 03:16:32;;;;;;;13.00;10.97;;;5.10;87.10;;;4.18;92.17;97839.38;5460704;26;20540;-79
2024/04/19 03:19:00;;;;;;;12.80;11.27;;;5.10;87.30;;;4.22;91.49;97829.97;5440162;26;20570;-76
2024/04/19 03:21:30;;;;;;;13.70;11.27;;;5.20;87.20;;;4.14;91.66;97815.84;5437266;26;20542;-76
2024/04/19 03:23:58;;;;;;;12.00;9.70;;;5.20;87.00;;;4.28;92.17;97828.44;5463741;26;20488;-75
2024/04/19 03:26:28;;;;;;;11.37;10.17;;;5.20;87.10;;;4.19;91.58;97824.13;5480804;26;21001;-82
2024/04/19 03:28:56;;;;;;;14.50;11.27;;;5.20;86.80;;;4.18;92.07;97820.66;5471498;26;20505;-79
2024/04/19 03:31:25;;;;;;;12.17;10.90;;;5.20;86.90;;;4.36;90.87;97819.50;5477523;26;20495;-71
2024/04/19 03:33:54;;;;;;;11.80;10.00;;;5.30;86.50;;;4.34;90.51;97818.84;5442661;26;20448;-75
2024/04/19 03:36:23;;;;;;;12.87;10.80;;;5.30;86.00;;;4.37;90.08;97810.47;5470228;26;20824;-78
2024/04/19 03:38:52;;;;;;;12.30;10.30;;;5.30;85.70;;;4.32;90.31;97812.81;5456317;26;20539;-70
2024/04/19 03:41:24;;;;;;;11.13;10.03;;;5.30;85.60;;;4.36;89.64;97812.28;5437091;26;20594;-77
2024/04/19 03:46:34;;;;;;;15.13;11.53;;;5.30;84.70;;;4.43;89.05;97815.06;5476439;26;20459;-80
2024/04/19 03:49:03;;;;;;;12.60;11.00;;;5.40;84.60;;;4.00;88.96;97738.06;5457347;26;20552;-78
2024/04/19 03:51:32;;;;;;;12.70;11.20;;;5.40;84.50;;;4.21;89.27;97806.91;5452111;26;20461;-82
2024/04/19 03:54:02;;;;;;;12.80;10.60;;;5.30;84.30;;;4.41;89.44;97798.38;5461986;26;20505;-76
2024/04/19 03:56:34;;;;;;;11.60;10.40;;;5.30;84.70;;;4.34;89.11;97795.59;5431755;26;21236;-77
2024/04/19 03:59:04;;;;;;;12.40;11.10;;;5.30;84.50;;;4.29;89.43;97797.16;5437824;26;20659;-82
2024/04/19 04:01:34;;;;;;;12.17;10.87;;;5.30;84.50;;;4.33;89.29;97774.41;5443009;26;23008;-78
2024/04/19 04:04:00;;;;;;;14.60;10.77;;;5.30;84.70;;;4.41;88.87;97785.00;5462269;26;20451;-78
2024/04/19 04:06:29;;;;;;;13.60;11.03;;;5.30;84.60;;;4.43;87.97;97772.28;5456391;26;20521;-79
2024/04/19 04:08:57;;;;;;;10.73;9.63;;;5.40;84.20;;;4.44;87.56;97765.91;5439671;26;20999;-75
2024/04/19 04:11:26;;;;;;;12.30;9.37;;;5.40;83.70;;;4.48;87.46;97772.56;5464039;26;20444;-79
2024/04/19 04:13:58;;;;;;;11.13;9.70;;;5.40;83.60;;;4.44;87.42;97755.19;5441206;26;20640;-76
2024/04/19 04:16:27;;;;;;;11.63;10.43;;;5.40;83.50;;;4.44;87.63;97757.06;5472513;26;20452;-78
2024/04/19 04:18:56;;;;;;;12.07;9.37;;;5.40;83.50;;;4.40;87.61;97761.94;5472699;26;20455;-75
2024/04/19 04:21:25;;;;;;;11.20;9.30;;;5.40;83.60;;;4.24;88.09;97753.06;5468904;26;20565;-79
2024/04/19 04:23:54;;;;;;;11.30;9.80;;;5.40;83.30;;;4.30;88.25;97747.97;5471485;26;20512;-77
2024/04/19 04:26:23;;;;;;;10.93;9.73;;;5.30;83.50;;;4.16;88.10;97755.78;5454927;26;20934;-73
2024/04/19 04:28:53;;;;;;;10.67;9.57;;;5.30;83.30;;;4.28;87.96;97763.38;5434321;26;20453;-76
2024/04/19 04:31:25;;;;;;;10.73;9.63;;;5.30;83.80;;;4.38;87.60;97753.28;5439211;26;20441;-78
2024/04/19 04:33:53;;;;;;;13.47;9.40;;;5.30;83.30;;;4.28;87.24;97755.38;5442685;26;20444;-79
2024/04/19 04:36:22;;;;;;;12.27;9.77;;;5.30;82.90;;;4.34;87.62;97749.31;5452702;26;20789;-80
2024/04/19 04:38:51;;;;;;;14.37;9.63;;;5.30;83.20;;;4.43;86.59;97742.03;5454157;26;20466;-75
2024/04/19 04:41:18;;;;;;;13.57;9.90;;;5.40;83.10;;;4.37;86.82;97751.59;5451258;26;20462;-73
2024/04/19 04:43:47;;;;;;;14.97;10.67;;;5.40;82.70;;;4.43;86.81;97750.88;5453989;26;21137;-75
2024/04/19 04:46:16;;;;;;;11.93;9.20;;;5.40;82.90;;;4.48;85.72;97750.31;5448775;26;20476;-73
2024/04/19 04:48:48;;;;;;;11.07;9.90;;;5.40;82.30;;;4.45;85.58;97746.16;5456956;26;21118;-75
2024/04/19 04:51:16;;;;;;;14.20;10.60;;;5.50;82.10;;;4.38;86.53;97745.25;5438609;26;21443;-75
2024/04/19 04:53:45;;;;;;;11.77;9.43;;;5.40;82.30;;;4.52;85.92;97744.44;5458878;26;20978;-75
2024/04/19 04:56:14;;;;;;;9.70;8.67;;;5.50;82.10;;;4.85;90.18;97715.63;5431411;26;20477;-74
2024/04/19 04:58:43;;;;;;;11.00;9.63;;;5.80;86.30;;;4.93;88.38;97735.09;5451626;26;21096;-74
2024/04/19 05:01:12;;;;;;;16.47;9.73;;;5.80;84.60;;;5.06;86.28;97736.28;5458980;26;20597;-75
2024/04/19 05:03:41;;;;;;;10.07;9.07;;;6.00;84.00;;;4.85;84.07;97716.44;5461527;26;20523;-73
2024/04/19 05:06:13;;;;;;;10.17;9.07;;;5.90;81.70;;;4.38;83.07;97635.56;5455105;26;20456;-74
2024/04/19 05:08:42;;;;;;;10.20;9.07;;;6.00;81.10;;;4.95;82.33;97719.69;5415088;26;20480;-76
2024/04/19 05:11:10;;;;;;;11.23;8.87;;;6.00;80.50;;;5.16;81.43;97726.13;5454226;26;20510;-75
2024/04/19 05:13:40;;;;;;;9.83;8.63;;;6.10;80.20;;;5.29;81.82;97716.56;5437651;26;20576;-76
2024/04/19 05:16:10;;;;;;;11.93;9.37;;;6.20;80.40;;;5.11;80.53;97720.47;5454631;26;20465;-75
2024/04/19 05:18:39;;;;;;;9.17;8.10;;;6.20;79.20;;;5.32;79.33;97716.22;5465063;26;20449;-74
2024/04/19 05:21:08;;;;;;;11.57;8.17;;;6.30;78.90;;;5.42;81.37;97710.53;5458910;26;20598;-77
2024/04/19 05:23:40;;;;;;;9.97;8.27;;;6.30;79.50;;;5.20;79.66;97714.00;5450115;26;20470;-78
2024/04/19 05:26:09;;;;;;;9.33;8.00;;;6.20;78.40;;;5.42;77.97;97710.53;5474569;26;20505;-76
2024/04/19 05:28:38;;;;;;;9.77;8.83;;;6.40;78.00;;;5.14;78.84;97703.22;5463656;26;20511;-78
2024/04/19 05:31:07;;;;;;;8.50;7.60;;;6.30;77.70;;;4.72;79.45;97631.47;5430615;26;20460;-77
2024/04/19 05:33:36;;;;;;;8.63;7.83;;;6.20;77.80;;;5.29;77.77;97693.28;5417293;26;20446;-80
2024/04/19 05:36:06;;;;;;;8.27;7.30;;;6.30;77.60;;;5.33;77.01;97686.53;5464637;26;20455;-75
2024/04/19 05:38:35;;;;;;;10.50;7.90;;;6.40;77.30;;;5.52;77.06;97698.47;5449912;26;20941;-79
2024/04/19 05:41:06;;;;;;;9.70;7.97;;;6.40;77.20;;;5.61;76.33;97703.69;5432257;26;20852;-75
2024/04/19 05:43:35;;;;;;;7.87;6.60;;;6.60;76.80;;;5.15;76.68;97635.25;5434547;26;20460;-75
2024/04/19 05:46:02;;;;;;;10.63;9.00;;;6.60;76.60;;;5.47;76.83;97692.88;5458995;26;21088;-77
2024/04/19 05:48:31;;;;;;;9.93;8.87;;;6.60;76.60;;;5.73;76.22;97690.63;5451387;26;20512;-75
2024/04/19 05:51:00;;;;;;;9.03;7.63;;;6.70;76.70;;;6.11;77.31;97682.31;5434028;26;20567;-75
2024/04/19 05:53:29;;;;;;;10.17;7.43;;;6.90;77.70;;;6.27;74.09;97677.66;5427670;26;21357;-81
2024/04/19 05:55:58;;;;;;;10.23;7.77;;;7.10;76.20;;;6.22;73.45;97667.53;5462880;26;20496;-74
2024/04/19 05:58:33;;;;;;;10.77;7.70;;;7.10;75.30;;;5.78;73.05;97610.44;5462725;26;20497;-76
2024/04/19 06:01:05;;;;;;;10.70;7.60;;;7.10;75.20;;;5.81;74.31;97666.34;5444978;26;21043;-77
2024/04/19 06:03:41;;;;;;;9.40;6.60;;;6.90;75.30;;;5.86;73.55;97696.13;5431064;26;20525;-77
2024/04/19 06:06:10;;;;;;;8.97;7.00;;;6.90;74.70;;;5.76;73.87;97658.06;5435267;26;21265;-75
2024/04/19 06:08:39;;;;;;;8.30;6.73;;;6.90;74.90;;;6.20;73.50;97675.78;5442793;26;20444;-76
2024/04/19 06:11:09;;;;;;;8.47;7.17;;;7.00;75.20;;;6.51;71.41;97677.22;5412724;26;20465;-75
2024/04/19 06:13:41;;;;;;;9.77;6.67;;;7.30;74.30;;;6.45;70.25;97647.66;5431437;26;20559;-75
2024/04/19 06:16:10;;;;;;;7.43;6.73;;;7.50;73.50;;;6.64;69.97;97687.19;5406726;26;20513;-74
2024/04/19 06:18:40;;;;;;;8.97;6.87;;;7.60;73.20;;;6.43;71.29;97680.03;5424075;26;20923;-79
2024/04/19 06:21:09;;;;;;;9.63;7.20;;;7.60;73.30;;;6.49;70.36;97679.25;5466696;26;20449;-77
2024/04/19 06:23:39;;;;;;;7.67;5.97;;;7.50;72.60;;;6.42;71.03;97682.94;5452466;26;20544;-85
2024/04/19 06:26:10;;;;;;;7.37;6.20;;;7.50;73.10;;;6.17;69.49;97590.34;5390239;26;20508;-76
2024/04/19 06:28:44;;;;;;;7.60;6.10;;;7.50;72.50;;;6.44;69.99;97670.97;5453386;26;20949;-84
2024/04/19 06:31:14;;;;;;;10.43;6.87;;;7.50;72.30;;;6.53;70.17;97671.66;5407164;26;20531;-80
2024/04/19 06:33:43;;;;;;;6.83;5.60;;;7.50;72.60;;;6.65;69.75;97666.56;5460944;26;20476;-83
2024/04/19 06:36:10;;;;;;;7.83;6.20;;;7.50;72.30;;;6.89;68.53;97675.94;5436340;26;20444;-83
2024/04/19 06:38:38;;;;;;;7.70;6.67;;;7.70;72.00;;;6.64;69.30;97662.22;5449171;26;20446;-74
2024/04/19 06:41:08;;;;;;;6.90;5.63;;;7.60;71.80;;;6.60;68.90;97663.66;5446128;26;20507;-70
2024/04/19 06:43:37;;;;;;;5.97;5.20;;;7.60;71.60;;;6.78;69.31;97674.66;5420312;26;20504;-71
2024/04/19 06:46:09;;;;;;;7.90;6.10;;;7.70;71.80;;;6.81;68.27;97665.38;5442894;26;20518;-71
2024/04/19 06:48:38;;;;;;;8.03;5.40;;;7.80;71.10;;;6.60;69.11;97663.66;5452345;26;20485;-72
2024/04/19 06:51:07;;;;;;;8.27;6.47;;;7.70;71.00;;;6.79;68.46;97665.59;5454862;26;20459;-69
2024/04/19 06:53:36;;;;;;;7.93;5.40;;;7.70;71.10;;;6.72;68.24;97661.22;5423134;26;20459;-70
2024/04/19 06:56:06;;;;;;;7.03;5.40;;;7.80;70.60;;;6.87;67.34;97653.84;5452276;26;20460;-71
2024/04/19 06:58:35;;;;;;;7.30;5.60;;;7.90;70.30;;;7.28;65.80;97645.88;5428323;26;21291;-69
2024/04/19 07:01:10;;;;;;;5.10;4.60;;;8.20;69.80;;;7.28;66.45;97651.25;5443968;26;20465;-71
2024/04/19 07:03:39;;;;;;;8.70;5.57;;;8.30;70.00;;;7.11;66.25;97648.13;5413138;26;20509;-74
2024/04/19 07:06:12;;;;;;;4.97;4.47;;;8.20;69.20;;;6.90;66.24;97641.84;5451358;26;20458;-74
2024/04/19 07:08:42;;;;;;;6.33;5.73;;;8.00;69.10;;;6.93;66.87;97650.34;5454234;26;20456;-70
2024/04/19 07:11:11;;;;;;;6.40;4.83;;;8.10;69.50;;;6.99;66.76;97648.72;5463909;26;20456;-73
2024/04/19 07:13:46;;;;;;;5.37;4.87;;;8.00;69.30;;;6.96;66.17;97614.19;5429590;26;21216;-73
2024/04/19 07:16:20;;;;;;;6.00;5.20;;;8.10;69.20;;;7.12;65.92;97629.09;5437493;26;20472;-74
2024/04/19 07:18:51;;;;;;;8.50;4.77;;;8.20;69.10;;;7.25;65.49;97633.72;5450899;26;20449;-74
2024/04/19 07:21:20;;;;;;;9.40;5.60;;;8.20;68.80;;;7.23;66.36;97625.03;5427067;26;20846;-72
2024/04/19 07:23:51;;;;;;;6.40;5.33;;;8.20;69.20;;;7.68;66.05;97634.38;5460969;26;20461;-70
2024/04/19 07:26:20;;;;;;;4.93;4.43;;;8.50;69.30;;;7.31;65.99;97610.56;5452955;26;20576;-75
2024/04/19 07:28:49;;;;;;;5.10;4.30;;;8.40;68.70;;;7.28;65.52;97622.53;5459137;26;20451;-74
2024/04/19 07:31:21;;;;;;;4.57;4.13;;;8.30;68.60;;;7.25;65.40;97614.06;5453176;26;20465;-70
2024/04/19 07:33:50;;;;;;;6.63;5.20;;;8.20;68.30;;;7.25;66.77;97614.91;5446185;26;20509;-72
2024/04/19 07:36:19;;;;;;;6.10;5.50;;;8.20;69.10;;;7.31;65.65;97579.13;5436640;26;20894;-73
2024/04/19 07:38:48;;;;;;;6.10;4.90;;;8.40;68.80;;;7.16;66.59;97610.72;5458252;26;20452;-74
2024/04/19 07:41:18;;;;;;;6.13;4.80;;;8.30;68.80;;;7.17;65.88;97601.63;5459858;26;20825;-73
2024/04/19 07:43:47;;;;;;;11.10;5.43;;;8.20;68.30;;;7.30;65.77;97585.53;5422317;26;20943;-75
2024/04/19 07:46:16;;;;;;;5.67;5.17;;;8.30;68.50;;;7.34;65.95;97580.59;5456439;26;20517;-73
2024/04/19 07:48:48;;;;;;;6.10;5.00;;;8.30;68.40;;;7.16;66.15;97575.81;5423843;26;20484;-75
2024/04/19 07:51:17;;;;;;;6.07;4.70;;;8.20;68.30;;;7.02;66.25;97578.47;5423666;26;20505;-74
2024/04/19 07:53:46;;;;;;;4.63;4.23;;;8.10;68.30;;;6.90;67.05;97567.50;5452135;26;20849;-73
2024/04/19 07:56:16;;;;;;;5.47;4.83;;;8.00;68.60;;;6.72;69.18;97562.69;5462878;26;20506;-77
2024/04/19 07:58:47;;;;;;;8.70;5.70;;;7.80;69.70;;;6.91;69.58;97552.22;5443738;26;20461;-78
2024/04/19 08:01:16;;;;;;;5.57;4.87;;;7.90;70.60;;;6.81;69.85;97563.31;5431511;26;20502;-80
2024/04/19 08:03:51;;;;;;;7.17;4.97;;;7.90;70.60;;;6.58;72.20;97563.66;5417599;26;20530;-79
2024/04/19 08:06:20;;;;;;;5.33;4.57;;;7.70;71.60;;;6.51;73.01;97559.13;5450570;26;20576;-72
2024/04/19 08:08:50;;;;;;;5.20;4.70;;;7.60;72.50;;;6.73;73.56;97556.28;5437453;26;20511;-74
2024/04/19 08:11:19;;;;;;;6.60;5.90;;;7.60;73.10;;;6.47;74.95;97539.06;5463054;26;20979;-75
2024/04/19 08:13:48;;;;;;;8.57;5.90;;;7.60;73.70;;;6.33;75.45;97548.09;5442793;26;20560;-77
2024/04/19 08:16:17;;;;;;;7.77;5.93;;;7.40;73.90;;;6.24;76.99;97550.13;5463938;26;20573;-75
2024/04/19 08:18:49;;;;;;;6.60;6.00;;;7.40;74.70;;;6.22;77.97;97518.13;5450545;26;20528;-79
2024/04/19 08:21:18;;;;;;;6.93;5.40;;;7.30;75.80;;;6.40;76.25;97535.53;5463390;26;20503;-77
2024/04/19 08:23:49;;;;;;;6.20;5.60;;;7.40;75.20;;;6.39;76.63;97533.88;5409336;26;20510;-75
2024/04/19 08:26:19;;;;;;;5.97;5.40;;;7.50;75.50;;;6.57;76.17;97540.53;5443284;26;20456;-77
2024/04/19 08:28:48;;;;;;;6.53;5.80;;;7.50;75.30;;;6.73;76.57;97525.94;5423595;26;20461;-78
2024/04/19 08:31:19;;;;;;;6.10;5.50;;;7.70;75.80;;;6.86;76.12;97520.59;5452618;26;20873;-75
2024/04/19 08:33:51;;;;;;;8.40;5.07;;;7.80;75.60;;;6.80;77.91;97507.97;5401676;26;21234;-77
2024/04/19 08:36:21;;;;;;;6.60;5.90;;;7.90;76.50;;;6.78;78.21;97502.81;5441362;26;20751;-80
2024/04/19 08:38:51;;;;;;;7.37;5.70;;;7.80;76.50;;;6.73;78.23;97505.28;5436239;26;20471;-78
2024/04/19 08:41:22;;;;;;;7.03;6.27;;;7.70;76.70;;;6.38;79.37;97498.19;5449012;26;20463;-76
2024/04/19 08:43:52;;;;;;;7.83;5.77;;;7.50;76.60;;;6.37;79.63;97493.84;5432462;26;20541;-70
2024/04/19 08:46:25;;;;;;;6.00;5.40;;;7.40;77.20;;;6.17;80.43;97496.44;5451527;26;20943;-75
2024/04/19 08:48:57;;;;;;;6.97;6.17;;;7.30;77.30;;;5.95;82.84;97488.47;5440407;26;20533;-77
2024/04/19 08:51:26;;;;;;;7.70;6.23;;;7.10;78.40;;;5.94;83.54;97492.16;5438733;26;20453;-76
2024/04/19 08:53:57;;;;;;;6.77;6.07;;;7.00;79.20;;;5.60;82.91;97431.34;5467026;26;20467;-72
2024/04/19 08:56:28;;;;;;;8.67;6.57;;;6.90;79.30;;;5.87;84.75;97483.28;5421567;26;20558;-76
2024/04/19 08:59:00;;;;;;;8.23;6.37;;;6.80;80.40;;;5.78;82.86;97481.78;5427456;26;20468;-76
2024/04/19 09:01:29;;;;;;;7.83;6.00;;;6.70;79.50;;;5.83;84.07;97468.59;5459084;26;20534;-79
2024/04/19 09:04:01;;;;;;;6.47;5.90;;;6.80;80.10;;;5.75;85.11;97480.31;5458470;26;20447;-78
2024/04/19 09:06:31;;;;;;;5.83;5.23;;;6.70;80.60;;;5.86;85.01;97459.31;5422383;26;21235;-77
2024/04/19 09:09:01;;;;;;;6.40;5.57;;;6.80;81.40;;;5.94;85.39;97462.66;5450671;26;20497;-81
2024/04/19 09:11:30;;;;;;;5.73;5.03;;;6.80;81.50;;;5.76;83.62;97428.38;5457177;26;20465;-77
2024/04/19 09:14:00;;;;;;;6.43;5.20;;;7.00;80.80;;;6.05;84.42;97465.84;5453429;26;20567;-72
2024/04/19 09:16:29;;;;;;;6.00;4.87;;;7.00;81.00;;;5.81;84.63;97452.72;5426530;26;20524;-77
2024/04/19 09:19:01;;;;;;;6.60;5.90;;;6.90;80.90;;;5.52;85.99;97426.97;5431196;26;20460;-77
2024/04/19 09:21:30;;;;;;;6.93;5.17;;;6.70;81.80;;;5.65;85.75;97442.31;5418837;26;21186;-82
2024/04/19 09:24:01;;;;;;;6.33;5.47;;;6.60;81.50;;;5.49;85.76;97433.59;5412244;26;21376;-80
2024/04/19 09:26:32;;;;;;;5.77;5.27;;;6.60;81.50;;;5.80;85.34;97434.13;5419553;26;20508;-76
2024/04/19 09:29:07;;;;;;;6.57;5.07;;;6.80;81.80;;;5.78;85.71;97407.53;5415428;26;20515;-74
2024/04/19 09:31:40;;;;;;;6.00;5.50;;;6.90;81.70;;;5.57;88.46;97418.34;5467414;26;20906;-77
2024/04/19 09:34:18;;;;;;;5.83;4.80;;;6.70;82.60;;;6.05;86.39;97412.22;5450447;26;21060;-78
2024/04/19 09:36:50;;;;;;;7.23;6.53;;;7.00;82.80;;;5.66;87.55;97396.53;5404168;26;20890;-78
2024/04/19 09:39:21;;;;;;;5.43;4.93;;;6.90;82.80;;;5.58;87.97;97395.88;5455839;26;21259;-76
2024/04/19 09:41:50;;;;;;;5.30;4.80;;;6.70;82.70;;;6.03;85.81;97396.31;5426736;26;20460;-81
2024/04/19 09:44:27;;;;;;;7.97;5.10;;;6.90;82.30;;;5.89;85.47;97400.78;5414933;26;20858;-81
2024/04/19 09:47:04;;;;;;;5.37;4.87;;;7.00;81.80;;;5.84;85.86;97381.78;5452096;26;20520;-81
2024/04/19 09:49:36;;;;;;;4.43;4.03;;;7.00;81.90;;;5.38;85.54;97317.09;5441019;26;20456;-75
2024/04/19 09:52:12;;;;;;;6.77;4.53;;;6.90;81.50;;;5.87;85.99;97377.88;5432651;26;21337;-79
2024/04/19 09:54:44;;;;;;;6.03;4.60;;;6.90;82.00;;;5.88;86.42;97375.00;5430101;26;20495;-80
2024/04/19 09:57:21;;;;;;;5.67;4.60;;;6.90;82.10;;;5.75;86.38;97388.34;5474205;26;20508;-79
2024/04/19 09:59:52;;;;;;;5.03;4.53;;;6.80;81.80;;;5.72;86.71;97372.66;5438131;26;20534;-80
2024/04/19 10:02:22;;;;;;;4.40;3.90;;;6.80;82.10;;;5.64;86.48;97371.78;5433328;26;21445;-79
2024/04/19 10:04:54;;;;;;;5.37;3.60;;;6.70;81.90;;;5.60;86.54;97365.19;5467243;26;20495;-75
2024/04/19 10:07:25;;;;;;;4.90;4.47;;;6.70;81.90;;;5.76;87.22;97357.84;5398018;26;20469;-79
2024/04/19 10:09:59;;;;;;;4.53;4.20;;;6.80;82.40;;;5.82;87.67;97351.66;5468680;26;20545;-81
2024/04/19 10:12:28;;;;;;;6.27;4.23;;;6.90;83.20;;;5.75;87.69;97356.19;5445211;26;20502;-80
2024/04/19 10:14:58;;;;;;;4.70;4.30;;;6.80;83.10;;;5.27;88.86;97280.16;5434640;26;20339;-82
2024/04/19 10:17:24;;;;;;;3.80;3.37;;;6.80;83.70;;;5.41;89.06;97328.44;5458761;26;20483;-77
2024/04/19 10:19:57;;;;;;;4.10;3.70;;;6.70;83.40;;;5.76;88.55;97333.72;5438995;26;21297;-82
2024/04/19 10:22:27;;;;;;;5.23;4.20;;;6.70;83.90;;;5.66;89.31;97356.34;5464534;26;20467;-81
2024/04/19 10:25:01;;;;;;;4.83;3.20;;;6.70;84.50;;;5.49;88.32;97344.31;5417263;26;20917;-78
2024/04/19 10:27:31;;;;;;;4.13;3.73;;;6.60;83.40;;;5.55;88.47;97332.81;5455572;26;20473;-79
2024/04/19 10:30:01;;;;;;;6.03;4.20;;;6.60;83.80;;;5.38;89.05;97295.66;5438906;26;21800;-81
2024/04/19 10:32:31;;;;;;;3.90;3.50;;;6.60;84.50;;;5.12;91.59;97264.19;5463566;26;20469;-75
2024/04/19 10:35:04;;;;;;;3.83;3.53;;;6.60;85.70;;;5.63;89.14;97321.91;5437814;26;20470;-83
2024/04/19 10:37:33;;;;;;;7.27;3.53;;;6.60;84.30;;;5.28;88.74;97300.53;5425594;26;20458;-79
2024/04/19 10:40:01;;;;;;;3.23;2.93;;;6.50;83.50;;;5.46;88.21;97315.25;5463615;26;20457;-79
2024/04/19 10:42:33;;;;;;;2.57;2.37;;;6.50;83.70;;;5.24;89.13;97307.34;5477028;26;20468;-75
2024/04/19 10:45:02;;;;;;;3.13;2.77;;;6.40;83.80;;;5.05;88.83;97282.09;5465327;26;20501;-76